sensor_id;sensor_type;location;lat;lon;timestamp;P1;durP1;ratioP1;P2;durP2;ratioP2
9854;SDS011;4966;48.112;9.282;2023-01-30T00:00:57;17.13;;;6.07;;
9854;SDS011;4966;48.112;9.282;2023-01-30T00:03:26;20.00;;;7.05;;
9854;SDS011;4966;48.112;9.282;2023-01-30T00:05:51;14.63;;;5.95;;
9854;SDS011;4966;48.112;9.282;2023-01-30T00:08:17;21.77;;;7.28;;
9854;SDS011;4966;48.112;9.282;2023-01-30T00:10:43;15.50;;;6.25;;
9854;SDS011;4966;48.112;9.282;2023-01-30T00:13:10;15.68;;;6.28;;
9854;SDS011;4966;48.112;9.282;2023-01-30T00:15:36;21.15;;;7.38;;
9854;SDS011;4966;48.112;9.282;2023-01-30T00:18:02;19.85;;;6.82;;
9854;SDS011;4966;48.112;9.282;2023-01-30T00:20:28;13.95;;;5.85;;
9854;SDS011;4966;48.112;9.282;2023-01-30T00:22:53;25.42;;;6.95;;
9854;SDS011;4966;48.112;9.282;2023-01-30T00:25:19;17.30;;;6.75;;
9854;SDS011;4966;48.112;9.282;2023-01-30T00:27:44;18.38;;;5.93;;
9854;SDS011;4966;48.112;9.282;2023-01-30T00:30:09;14.25;;;6.07;;
9854;SDS011;4966;48.112;9.282;2023-01-30T00:32:35;15.75;;;6.15;;
9854;SDS011;4966;48.112;9.282;2023-01-30T00:35:00;18.08;;;6.93;;
9854;SDS011;4966;48.112;9.282;2023-01-30T00:37:26;18.75;;;6.75;;
9854;SDS011;4966;48.112;9.282;2023-01-30T00:39:51;14.02;;;5.88;;
9854;SDS011;4966;48.112;9.282;2023-01-30T00:42:16;22.80;;;7.00;;
9854;SDS011;4966;48.112;9.282;2023-01-30T00:45:00;10.93;;;4.80;;
9854;SDS011;4966;48.112;9.282;2023-01-30T00:47:45;22.23;;;6.97;;
9854;SDS011;4966;48.112;9.282;2023-01-30T00:50:12;21.48;;;6.63;;
9854;SDS011;4966;48.112;9.282;2023-01-30T00:52:37;18.92;;;7.13;;
9854;SDS011;4966;48.112;9.282;2023-01-30T00:55:02;20.02;;;7.78;;
9854;SDS011;4966;48.112;9.282;2023-01-30T00:57:28;18.60;;;6.60;;
9854;SDS011;4966;48.112;9.282;2023-01-30T00:59:53;19.42;;;7.50;;
9854;SDS011;4966;48.112;9.282;2023-01-30T01:02:19;21.75;;;7.72;;
9854;SDS011;4966;48.112;9.282;2023-01-30T01:04:45;20.70;;;7.07;;
9854;SDS011;4966;48.112;9.282;2023-01-30T01:07:10;21.20;;;7.50;;
9854;SDS011;4966;48.112;9.282;2023-01-30T01:09:37;15.50;;;6.43;;
9854;SDS011;4966;48.112;9.282;2023-01-30T01:12:03;21.85;;;7.57;;
9854;SDS011;4966;48.112;9.282;2023-01-30T01:14:28;18.60;;;7.47;;
9854;SDS011;4966;48.112;9.282;2023-01-30T01:16:54;17.70;;;7.20;;
9854;SDS011;4966;48.112;9.282;2023-01-30T01:19:19;19.77;;;7.72;;
9854;SDS011;4966;48.112;9.282;2023-01-30T01:21:45;20.33;;;7.32;;
9854;SDS011;4966;48.112;9.282;2023-01-30T01:24:10;18.83;;;6.75;;
9854;SDS011;4966;48.112;9.282;2023-01-30T01:26:37;16.58;;;7.03;;
9854;SDS011;4966;48.112;9.282;2023-01-30T01:29:03;16.20;;;5.90;;
9854;SDS011;4966;48.112;9.282;2023-01-30T01:31:28;22.00;;;7.45;;
9854;SDS011;4966;48.112;9.282;2023-01-30T01:33:53;15.45;;;6.47;;
9854;SDS011;4966;48.112;9.282;2023-01-30T01:36:19;23.35;;;7.75;;
9854;SDS011;4966;48.112;9.282;2023-01-30T01:38:45;18.38;;;6.43;;
9854;SDS011;4966;48.112;9.282;2023-01-30T01:41:10;20.30;;;8.05;;
9854;SDS011;4966;48.112;9.282;2023-01-30T01:46:33;17.90;;;6.82;;
9854;SDS011;4966;48.112;9.282;2023-01-30T01:49:00;20.52;;;6.75;;
9854;SDS011;4966;48.112;9.282;2023-01-30T01:51:30;20.95;;;7.47;;
9854;SDS011;4966;48.112;9.282;2023-01-30T01:54:07;20.35;;;7.88;;
9854;SDS011;4966;48.112;9.282;2023-01-30T01:56:38;21.83;;;8.15;;
9854;SDS011;4966;48.112;9.282;2023-01-30T01:59:23;21.10;;;7.88;;
9854;SDS011;4966;48.112;9.282;2023-01-30T02:01:54;24.52;;;7.40;;
9854;SDS011;4966;48.112;9.282;2023-01-30T02:04:24;17.58;;;5.95;;
9854;SDS011;4966;48.112;9.282;2023-01-30T02:09:38;16.20;;;6.93;;
9854;SDS011;4966;48.112;9.282;2023-01-30T02:12:03;18.40;;;7.35;;
9854;SDS011;4966;48.112;9.282;2023-01-30T02:14:30;19.42;;;7.95;;
9854;SDS011;4966;48.112;9.282;2023-01-30T02:16:57;17.38;;;7.30;;
9854;SDS011;4966;48.112;9.282;2023-01-30T02:19:24;19.85;;;7.63;;
9854;SDS011;4966;48.112;9.282;2023-01-30T02:33:05;19.73;;;7.53;;
9854;SDS011;4966;48.112;9.282;2023-01-30T02:49:28;23.38;;;7.90;;
9854;SDS011;4966;48.112;9.282;2023-01-30T02:51:59;22.75;;;7.10;;
9854;SDS011;4966;48.112;9.282;2023-01-30T02:54:26;19.08;;;6.57;;
9854;SDS011;4966;48.112;9.282;2023-01-30T02:56:53;18.58;;;6.88;;
9854;SDS011;4966;48.112;9.282;2023-01-30T02:59:36;20.20;;;6.90;;
9854;SDS011;4966;48.112;9.282;2023-01-30T03:07:24;19.88;;;7.78;;
9854;SDS011;4966;48.112;9.282;2023-01-30T03:13:01;13.93;;;5.72;;
9854;SDS011;4966;48.112;9.282;2023-01-30T03:15:32;20.42;;;7.03;;
9854;SDS011;4966;48.112;9.282;2023-01-30T03:18:00;19.40;;;7.82;;
9854;SDS011;4966;48.112;9.282;2023-01-30T03:20:26;17.50;;;7.15;;
9854;SDS011;4966;48.112;9.282;2023-01-30T03:22:52;19.08;;;7.18;;
9854;SDS011;4966;48.112;9.282;2023-01-30T03:25:21;20.02;;;7.18;;
9854;SDS011;4966;48.112;9.282;2023-01-30T03:27:50;18.58;;;7.07;;
9854;SDS011;4966;48.112;9.282;2023-01-30T03:30:18;18.83;;;6.60;;
9854;SDS011;4966;48.112;9.282;2023-01-30T03:32:43;18.75;;;6.95;;
9854;SDS011;4966;48.112;9.282;2023-01-30T03:35:09;18.50;;;7.18;;
9854;SDS011;4966;48.112;9.282;2023-01-30T03:37:34;18.98;;;6.80;;
9854;SDS011;4966;48.112;9.282;2023-01-30T03:40:00;17.65;;;6.95;;
9854;SDS011;4966;48.112;9.282;2023-01-30T03:42:25;21.10;;;7.18;;
9854;SDS011;4966;48.112;9.282;2023-01-30T03:44:51;18.25;;;7.82;;
9854;SDS011;4966;48.112;9.282;2023-01-30T03:47:16;20.38;;;7.07;;
9854;SDS011;4966;48.112;9.282;2023-01-30T03:49:42;22.58;;;8.23;;
9854;SDS011;4966;48.112;9.282;2023-01-30T03:52:07;21.52;;;8.00;;
9854;SDS011;4966;48.112;9.282;2023-01-30T03:54:32;20.30;;;7.28;;
9854;SDS011;4966;48.112;9.282;2023-01-30T03:56:58;14.65;;;6.15;;
9854;SDS011;4966;48.112;9.282;2023-01-30T03:59:23;23.67;;;7.80;;
9854;SDS011;4966;48.112;9.282;2023-01-30T04:01:48;11.25;;;4.88;;
9854;SDS011;4966;48.112;9.282;2023-01-30T04:04:14;19.73;;;8.02;;
9854;SDS011;4966;48.112;9.282;2023-01-30T04:06:39;21.55;;;7.07;;
9854;SDS011;4966;48.112;9.282;2023-01-30T04:09:04;15.75;;;7.32;;
9854;SDS011;4966;48.112;9.282;2023-01-30T04:11:30;13.82;;;6.32;;
9854;SDS011;4966;48.112;9.282;2023-01-30T04:13:55;19.00;;;7.18;;
9854;SDS011;4966;48.112;9.282;2023-01-30T04:16:22;21.15;;;8.32;;
9854;SDS011;4966;48.112;9.282;2023-01-30T04:18:49;23.80;;;8.63;;
9854;SDS011;4966;48.112;9.282;2023-01-30T04:21:15;19.27;;;7.75;;
9854;SDS011;4966;48.112;9.282;2023-01-30T04:23:41;19.70;;;7.68;;
9854;SDS011;4966;48.112;9.282;2023-01-30T04:26:06;19.27;;;7.72;;
9854;SDS011;4966;48.112;9.282;2023-01-30T04:28:32;18.10;;;6.93;;
9854;SDS011;4966;48.112;9.282;2023-01-30T04:30:58;25.75;;;8.18;;
9854;SDS011;4966;48.112;9.282;2023-01-30T04:33:23;23.75;;;8.30;;
9854;SDS011;4966;48.112;9.282;2023-01-30T04:35:52;20.38;;;8.07;;
9854;SDS011;4966;48.112;9.282;2023-01-30T04:38:18;20.65;;;7.32;;
9854;SDS011;4966;48.112;9.282;2023-01-30T04:40:50;20.67;;;7.63;;
9854;SDS011;4966;48.112;9.282;2023-01-30T04:43:17;31.00;;;8.80;;
9854;SDS011;4966;48.112;9.282;2023-01-30T04:45:44;20.95;;;8.13;;
9854;SDS011;4966;48.112;9.282;2023-01-30T04:48:10;15.55;;;6.55;;
9854;SDS011;4966;48.112;9.282;2023-01-30T04:50:37;20.80;;;7.63;;
9854;SDS011;4966;48.112;9.282;2023-01-30T04:53:04;16.67;;;6.03;;
9854;SDS011;4966;48.112;9.282;2023-01-30T04:55:29;19.15;;;7.00;;
9854;SDS011;4966;48.112;9.282;2023-01-30T04:57:55;20.88;;;8.27;;
9854;SDS011;4966;48.112;9.282;2023-01-30T05:00:20;14.38;;;5.80;;
9854;SDS011;4966;48.112;9.282;2023-01-30T05:02:46;20.20;;;7.60;;
9854;SDS011;4966;48.112;9.282;2023-01-30T05:05:11;22.73;;;7.63;;
9854;SDS011;4966;48.112;9.282;2023-01-30T05:07:36;14.88;;;6.47;;
9854;SDS011;4966;48.112;9.282;2023-01-30T05:10:02;21.92;;;7.75;;
9854;SDS011;4966;48.112;9.282;2023-01-30T05:12:27;18.70;;;7.72;;
9854;SDS011;4966;48.112;9.282;2023-01-30T05:14:54;19.30;;;7.00;;
9854;SDS011;4966;48.112;9.282;2023-01-30T05:17:20;22.02;;;8.18;;
9854;SDS011;4966;48.112;9.282;2023-01-30T05:19:45;19.63;;;7.47;;
9854;SDS011;4966;48.112;9.282;2023-01-30T05:22:11;17.27;;;7.15;;
9854;SDS011;4966;48.112;9.282;2023-01-30T05:24:36;15.55;;;6.97;;
9854;SDS011;4966;48.112;9.282;2023-01-30T05:27:02;18.50;;;7.53;;
9854;SDS011;4966;48.112;9.282;2023-01-30T05:29:28;21.20;;;8.00;;
9854;SDS011;4966;48.112;9.282;2023-01-30T05:31:53;20.25;;;7.60;;
9854;SDS011;4966;48.112;9.282;2023-01-30T05:34:18;20.00;;;6.50;;
9854;SDS011;4966;48.112;9.282;2023-01-30T05:36:44;7.47;;;3.85;;
9854;SDS011;4966;48.112;9.282;2023-01-30T05:39:09;15.65;;;5.68;;
9854;SDS011;4966;48.112;9.282;2023-01-30T05:41:35;19.70;;;6.97;;
9854;SDS011;4966;48.112;9.282;2023-01-30T05:44:00;24.02;;;7.60;;
9854;SDS011;4966;48.112;9.282;2023-01-30T05:46:25;11.50;;;4.22;;
9854;SDS011;4966;48.112;9.282;2023-01-30T05:48:51;24.08;;;8.32;;
9854;SDS011;4966;48.112;9.282;2023-01-30T05:51:20;16.90;;;7.38;;
9854;SDS011;4966;48.112;9.282;2023-01-30T05:53:47;20.92;;;6.88;;
9854;SDS011;4966;48.112;9.282;2023-01-30T05:56:13;19.50;;;7.72;;
9854;SDS011;4966;48.112;9.282;2023-01-30T05:58:39;22.35;;;8.15;;
9854;SDS011;4966;48.112;9.282;2023-01-30T06:01:06;18.02;;;7.18;;
9854;SDS011;4966;48.112;9.282;2023-01-30T06:03:33;22.90;;;6.88;;
9854;SDS011;4966;48.112;9.282;2023-01-30T06:06:02;20.45;;;8.52;;
9854;SDS011;4966;48.112;9.282;2023-01-30T06:08:29;20.42;;;7.38;;
9854;SDS011;4966;48.112;9.282;2023-01-30T06:10:58;16.45;;;6.38;;
9854;SDS011;4966;48.112;9.282;2023-01-30T06:13:28;9.77;;;4.45;;
9854;SDS011;4966;48.112;9.282;2023-01-30T06:15:53;15.23;;;6.50;;
9854;SDS011;4966;48.112;9.282;2023-01-30T06:18:18;18.05;;;6.95;;
9854;SDS011;4966;48.112;9.282;2023-01-30T06:20:47;14.30;;;6.45;;
9854;SDS011;4966;48.112;9.282;2023-01-30T06:23:14;16.00;;;6.60;;
9854;SDS011;4966;48.112;9.282;2023-01-30T06:25:43;18.58;;;6.55;;
9854;SDS011;4966;48.112;9.282;2023-01-30T06:28:12;13.60;;;5.65;;
9854;SDS011;4966;48.112;9.282;2023-01-30T06:30:39;15.95;;;6.47;;
9854;SDS011;4966;48.112;9.282;2023-01-30T06:33:05;15.57;;;7.00;;
9854;SDS011;4966;48.112;9.282;2023-01-30T06:35:31;17.30;;;7.32;;
9854;SDS011;4966;48.112;9.282;2023-01-30T06:37:56;19.23;;;6.80;;
9854;SDS011;4966;48.112;9.282;2023-01-30T06:40:22;19.10;;;6.60;;
9854;SDS011;4966;48.112;9.282;2023-01-30T06:42:47;17.17;;;6.97;;
9854;SDS011;4966;48.112;9.282;2023-01-30T06:45:14;14.43;;;6.50;;
9854;SDS011;4966;48.112;9.282;2023-01-30T06:47:47;21.67;;;7.80;;
9854;SDS011;4966;48.112;9.282;2023-01-30T06:50:18;20.10;;;7.32;;
9854;SDS011;4966;48.112;9.282;2023-01-30T06:52:45;15.45;;;6.32;;
9854;SDS011;4966;48.112;9.282;2023-01-30T06:55:13;17.77;;;6.18;;
9854;SDS011;4966;48.112;9.282;2023-01-30T06:57:40;16.90;;;6.70;;
9854;SDS011;4966;48.112;9.282;2023-01-30T07:00:07;18.50;;;6.50;;
9854;SDS011;4966;48.112;9.282;2023-01-30T07:02:34;19.60;;;7.10;;
9854;SDS011;4966;48.112;9.282;2023-01-30T07:05:00;18.60;;;7.43;;
9854;SDS011;4966;48.112;9.282;2023-01-30T07:07:27;22.55;;;8.07;;
9854;SDS011;4966;48.112;9.282;2023-01-30T07:09:52;18.02;;;6.95;;
9854;SDS011;4966;48.112;9.282;2023-01-30T07:12:18;17.75;;;6.13;;
9854;SDS011;4966;48.112;9.282;2023-01-30T07:14:44;17.77;;;7.20;;
9854;SDS011;4966;48.112;9.282;2023-01-30T07:17:09;9.90;;;4.72;;
9854;SDS011;4966;48.112;9.282;2023-01-30T07:19:35;16.10;;;6.43;;
9854;SDS011;4966;48.112;9.282;2023-01-30T07:22:00;16.45;;;6.80;;
9854;SDS011;4966;48.112;9.282;2023-01-30T07:24:26;19.77;;;7.38;;
9854;SDS011;4966;48.112;9.282;2023-01-30T07:26:51;16.40;;;7.20;;
9854;SDS011;4966;48.112;9.282;2023-01-30T07:29:16;20.00;;;7.32;;
9854;SDS011;4966;48.112;9.282;2023-01-30T07:31:42;16.90;;;7.15;;
9854;SDS011;4966;48.112;9.282;2023-01-30T07:34:07;16.80;;;6.65;;
9854;SDS011;4966;48.112;9.282;2023-01-30T07:36:32;21.45;;;9.00;;
9854;SDS011;4966;48.112;9.282;2023-01-30T07:38:58;18.27;;;7.63;;
9854;SDS011;4966;48.112;9.282;2023-01-30T07:41:25;18.75;;;7.70;;
9854;SDS011;4966;48.112;9.282;2023-01-30T07:43:51;22.25;;;8.75;;
9854;SDS011;4966;48.112;9.282;2023-01-30T07:46:17;22.70;;;9.15;;
9854;SDS011;4966;48.112;9.282;2023-01-30T07:48:45;21.08;;;7.80;;
9854;SDS011;4966;48.112;9.282;2023-01-30T07:51:10;20.50;;;8.18;;
9854;SDS011;4966;48.112;9.282;2023-01-30T07:53:36;16.20;;;7.15;;
9854;SDS011;4966;48.112;9.282;2023-01-30T07:56:05;14.45;;;5.72;;
9854;SDS011;4966;48.112;9.282;2023-01-30T07:58:32;20.10;;;8.48;;
9854;SDS011;4966;48.112;9.282;2023-01-30T08:00:57;16.85;;;6.57;;
9854;SDS011;4966;48.112;9.282;2023-01-30T08:03:22;17.02;;;7.20;;
9854;SDS011;4966;48.112;9.282;2023-01-30T08:05:48;21.10;;;8.82;;
9854;SDS011;4966;48.112;9.282;2023-01-30T08:08:14;16.90;;;7.28;;
9854;SDS011;4966;48.112;9.282;2023-01-30T08:10:39;22.38;;;6.93;;
9854;SDS011;4966;48.112;9.282;2023-01-30T08:13:05;17.70;;;6.43;;
9854;SDS011;4966;48.112;9.282;2023-01-30T08:15:30;17.80;;;6.65;;
9854;SDS011;4966;48.112;9.282;2023-01-30T08:17:57;20.95;;;6.82;;
9854;SDS011;4966;48.112;9.282;2023-01-30T08:20:23;17.92;;;8.15;;
9854;SDS011;4966;48.112;9.282;2023-01-30T08:22:50;19.85;;;7.35;;
9854;SDS011;4966;48.112;9.282;2023-01-30T08:25:16;19.17;;;7.15;;
9854;SDS011;4966;48.112;9.282;2023-01-30T08:27:41;18.23;;;7.28;;
9854;SDS011;4966;48.112;9.282;2023-01-30T08:30:07;14.30;;;5.30;;
9854;SDS011;4966;48.112;9.282;2023-01-30T08:32:34;12.50;;;4.75;;
9854;SDS011;4966;48.112;9.282;2023-01-30T08:34:59;15.50;;;5.63;;
9854;SDS011;4966;48.112;9.282;2023-01-30T08:37:25;15.25;;;6.03;;
9854;SDS011;4966;48.112;9.282;2023-01-30T08:39:50;14.35;;;6.25;;
9854;SDS011;4966;48.112;9.282;2023-01-30T08:42:16;14.30;;;5.40;;
9854;SDS011;4966;48.112;9.282;2023-01-30T08:44:41;12.40;;;4.15;;
9854;SDS011;4966;48.112;9.282;2023-01-30T08:47:06;13.00;;;5.22;;
9854;SDS011;4966;48.112;9.282;2023-01-30T08:49:32;17.25;;;6.15;;
9854;SDS011;4966;48.112;9.282;2023-01-30T08:51:57;14.10;;;5.43;;
9854;SDS011;4966;48.112;9.282;2023-01-30T08:54:22;13.80;;;5.53;;
9854;SDS011;4966;48.112;9.282;2023-01-30T08:56:48;11.20;;;4.93;;
9854;SDS011;4966;48.112;9.282;2023-01-30T08:59:13;10.60;;;2.92;;
9854;SDS011;4966;48.112;9.282;2023-01-30T09:01:39;14.45;;;5.53;;
9854;SDS011;4966;48.112;9.282;2023-01-30T09:04:04;13.35;;;4.30;;
9854;SDS011;4966;48.112;9.282;2023-01-30T09:06:29;12.68;;;5.45;;
9854;SDS011;4966;48.112;9.282;2023-01-30T09:08:55;11.50;;;4.38;;
9854;SDS011;4966;48.112;9.282;2023-01-30T09:11:20;11.85;;;4.80;;
9854;SDS011;4966;48.112;9.282;2023-01-30T09:13:46;19.02;;;6.50;;
9854;SDS011;4966;48.112;9.282;2023-01-30T09:16:11;20.17;;;6.80;;
9854;SDS011;4966;48.112;9.282;2023-01-30T09:18:37;30.23;;;8.98;;
9854;SDS011;4966;48.112;9.282;2023-01-30T09:21:07;8.10;;;3.63;;
9854;SDS011;4966;48.112;9.282;2023-01-30T09:23:33;21.73;;;8.00;;
9854;SDS011;4966;48.112;9.282;2023-01-30T09:25:59;16.80;;;6.45;;
9854;SDS011;4966;48.112;9.282;2023-01-30T09:28:25;15.23;;;6.18;;
9854;SDS011;4966;48.112;9.282;2023-01-30T09:30:50;10.90;;;4.93;;
9854;SDS011;4966;48.112;9.282;2023-01-30T09:33:16;12.77;;;5.43;;
9854;SDS011;4966;48.112;9.282;2023-01-30T09:35:46;10.73;;;4.00;;
9854;SDS011;4966;48.112;9.282;2023-01-30T09:38:12;13.10;;;5.28;;
9854;SDS011;4966;48.112;9.282;2023-01-30T09:40:38;11.77;;;4.30;;
9854;SDS011;4966;48.112;9.282;2023-01-30T09:45:57;10.50;;;4.45;;
9854;SDS011;4966;48.112;9.282;2023-01-30T09:48:40;8.00;;;3.88;;
9854;SDS011;4966;48.112;9.282;2023-01-30T09:51:21;13.15;;;5.15;;
9854;SDS011;4966;48.112;9.282;2023-01-30T09:54:03;10.23;;;4.75;;
9854;SDS011;4966;48.112;9.282;2023-01-30T09:56:49;10.90;;;4.43;;
9854;SDS011;4966;48.112;9.282;2023-01-30T09:59:20;11.55;;;4.78;;
9854;SDS011;4966;48.112;9.282;2023-01-30T10:02:00;13.05;;;5.00;;
9854;SDS011;4966;48.112;9.282;2023-01-30T10:04:43;9.95;;;4.00;;
9854;SDS011;4966;48.112;9.282;2023-01-30T10:12:43;10.05;;;3.25;;
9854;SDS011;4966;48.112;9.282;2023-01-30T10:15:27;9.05;;;4.10;;
9854;SDS011;4966;48.112;9.282;2023-01-30T10:20:30;9.38;;;4.38;;
9854;SDS011;4966;48.112;9.282;2023-01-30T10:28:23;10.10;;;4.05;;
9854;SDS011;4966;48.112;9.282;2023-01-30T10:30:53;14.27;;;5.57;;
9854;SDS011;4966;48.112;9.282;2023-01-30T10:33:29;12.00;;;4.10;;
9854;SDS011;4966;48.112;9.282;2023-01-30T10:36:08;9.88;;;3.72;;
9854;SDS011;4966;48.112;9.282;2023-01-30T10:38:38;10.07;;;4.65;;
9854;SDS011;4966;48.112;9.282;2023-01-30T10:43:43;11.65;;;4.43;;
9854;SDS011;4966;48.112;9.282;2023-01-30T10:54:50;9.20;;;3.60;;
9854;SDS011;4966;48.112;9.282;2023-01-30T11:06:00;7.32;;;3.47;;
9854;SDS011;4966;48.112;9.282;2023-01-30T11:10:54;12.10;;;4.78;;
9854;SDS011;4966;48.112;9.282;2023-01-30T11:13:22;8.82;;;3.67;;
9854;SDS011;4966;48.112;9.282;2023-01-30T11:15:58;7.43;;;3.92;;
9854;SDS011;4966;48.112;9.282;2023-01-30T11:18:28;8.60;;;3.80;;
9854;SDS011;4966;48.112;9.282;2023-01-30T11:21:03;9.32;;;4.18;;
9854;SDS011;4966;48.112;9.282;2023-01-30T11:25:57;16.85;;;5.82;;
9854;SDS011;4966;48.112;9.282;2023-01-30T11:28:24;9.32;;;3.95;;
9854;SDS011;4966;48.112;9.282;2023-01-30T11:30:55;11.98;;;4.47;;
9854;SDS011;4966;48.112;9.282;2023-01-30T11:33:23;12.98;;;5.20;;
9854;SDS011;4966;48.112;9.282;2023-01-30T11:38:35;16.45;;;6.60;;
9854;SDS011;4966;48.112;9.282;2023-01-30T11:41:20;8.75;;;4.18;;
9854;SDS011;4966;48.112;9.282;2023-01-30T11:43:46;18.50;;;7.05;;
9854;SDS011;4966;48.112;9.282;2023-01-30T11:46:16;17.70;;;6.30;;
9854;SDS011;4966;48.112;9.282;2023-01-30T11:51:18;11.52;;;5.53;;
9854;SDS011;4966;48.112;9.282;2023-01-30T11:56:34;13.35;;;5.93;;
9854;SDS011;4966;48.112;9.282;2023-01-30T11:59:05;14.23;;;5.72;;
9854;SDS011;4966;48.112;9.282;2023-01-30T12:01:37;6.75;;;3.28;;
9854;SDS011;4966;48.112;9.282;2023-01-30T12:04:07;10.02;;;4.07;;
9854;SDS011;4966;48.112;9.282;2023-01-30T12:06:37;9.02;;;3.72;;
9854;SDS011;4966;48.112;9.282;2023-01-30T12:20:28;8.82;;;4.07;;
9854;SDS011;4966;48.112;9.282;2023-01-30T12:23:01;7.18;;;3.22;;
9854;SDS011;4966;48.112;9.282;2023-01-30T12:25:43;9.50;;;3.15;;
9854;SDS011;4966;48.112;9.282;2023-01-30T12:31:13;12.10;;;4.18;;
9854;SDS011;4966;48.112;9.282;2023-01-30T12:33:44;8.55;;;3.92;;
9854;SDS011;4966;48.112;9.282;2023-01-30T12:36:34;11.98;;;4.38;;
9854;SDS011;4966;48.112;9.282;2023-01-30T12:39:12;10.40;;;4.45;;
9854;SDS011;4966;48.112;9.282;2023-01-30T12:47:06;10.50;;;3.38;;
9854;SDS011;4966;48.112;9.282;2023-01-30T12:55:08;11.82;;;4.78;;
9854;SDS011;4966;48.112;9.282;2023-01-30T13:03:29;8.15;;;3.80;;
9854;SDS011;4966;48.112;9.282;2023-01-30T13:09:08;9.65;;;4.35;;
9854;SDS011;4966;48.112;9.282;2023-01-30T13:12:08;8.52;;;3.90;;
9854;SDS011;4966;48.112;9.282;2023-01-30T13:14:47;12.95;;;5.03;;
9854;SDS011;4966;48.112;9.282;2023-01-30T13:22:41;9.73;;;4.10;;
9854;SDS011;4966;48.112;9.282;2023-01-30T13:28:15;8.50;;;4.00;;
9854;SDS011;4966;48.112;9.282;2023-01-30T13:30:44;9.00;;;3.83;;
9854;SDS011;4966;48.112;9.282;2023-01-30T13:33:12;7.90;;;2.95;;
9854;SDS011;4966;48.112;9.282;2023-01-30T13:35:45;9.68;;;3.88;;
9854;SDS011;4966;48.112;9.282;2023-01-30T13:38:19;10.02;;;4.18;;
9854;SDS011;4966;48.112;9.282;2023-01-30T13:40:48;11.48;;;4.43;;
9854;SDS011;4966;48.112;9.282;2023-01-30T13:43:19;8.60;;;3.60;;
9854;SDS011;4966;48.112;9.282;2023-01-30T13:45:48;8.18;;;4.00;;
9854;SDS011;4966;48.112;9.282;2023-01-30T13:50:57;10.40;;;4.20;;
9854;SDS011;4966;48.112;9.282;2023-01-30T14:09:39;11.05;;;4.63;;
9854;SDS011;4966;48.112;9.282;2023-01-30T14:12:15;12.77;;;4.80;;
9854;SDS011;4966;48.112;9.282;2023-01-30T14:14:41;10.82;;;4.47;;
9854;SDS011;4966;48.112;9.282;2023-01-30T14:17:23;9.85;;;4.72;;
9854;SDS011;4966;48.112;9.282;2023-01-30T14:22:26;11.40;;;4.70;;
9854;SDS011;4966;48.112;9.282;2023-01-30T14:38:20;12.27;;;5.00;;
9854;SDS011;4966;48.112;9.282;2023-01-30T14:45:52;12.93;;;3.95;;
9854;SDS011;4966;48.112;9.282;2023-01-30T14:48:36;9.55;;;4.15;;
9854;SDS011;4966;48.112;9.282;2023-01-30T14:56:48;9.13;;;4.47;;
9854;SDS011;4966;48.112;9.282;2023-01-30T14:59:26;11.82;;;4.75;;
9854;SDS011;4966;48.112;9.282;2023-01-30T15:04:45;11.10;;;4.35;;
9854;SDS011;4966;48.112;9.282;2023-01-30T15:07:22;11.13;;;4.53;;
9854;SDS011;4966;48.112;9.282;2023-01-30T15:10:26;9.07;;;4.32;;
9854;SDS011;4966;48.112;9.282;2023-01-30T15:32:49;12.90;;;6.00;;
9854;SDS011;4966;48.112;9.282;2023-01-30T15:35:32;18.50;;;6.70;;
9854;SDS011;4966;48.112;9.282;2023-01-30T15:37:58;13.93;;;5.82;;
9854;SDS011;4966;48.112;9.282;2023-01-30T15:40:24;9.63;;;4.03;;
9854;SDS011;4966;48.112;9.282;2023-01-30T15:42:57;19.17;;;8.00;;
9854;SDS011;4966;48.112;9.282;2023-01-30T15:48:28;12.73;;;4.32;;
9854;SDS011;4966;48.112;9.282;2023-01-30T15:51:07;13.43;;;5.80;;
9854;SDS011;4966;48.112;9.282;2023-01-30T15:53:39;17.67;;;6.88;;
9854;SDS011;4966;48.112;9.282;2023-01-30T15:56:08;9.20;;;4.25;;
9854;SDS011;4966;48.112;9.282;2023-01-30T15:58:37;12.57;;;4.45;;
9854;SDS011;4966;48.112;9.282;2023-01-30T16:01:06;10.40;;;4.35;;
9854;SDS011;4966;48.112;9.282;2023-01-30T16:03:33;14.50;;;5.32;;
9854;SDS011;4966;48.112;9.282;2023-01-30T16:06:05;11.60;;;4.85;;
9854;SDS011;4966;48.112;9.282;2023-01-30T16:08:33;10.88;;;4.55;;
9854;SDS011;4966;48.112;9.282;2023-01-30T16:10:59;11.82;;;5.35;;
9854;SDS011;4966;48.112;9.282;2023-01-30T16:13:26;11.30;;;4.95;;
9854;SDS011;4966;48.112;9.282;2023-01-30T16:15:57;12.10;;;5.28;;
9854;SDS011;4966;48.112;9.282;2023-01-30T16:26:28;20.40;;;7.57;;
9854;SDS011;4966;48.112;9.282;2023-01-30T16:29:05;14.60;;;7.30;;
9854;SDS011;4966;48.112;9.282;2023-01-30T16:31:32;13.20;;;5.88;;
9854;SDS011;4966;48.112;9.282;2023-01-30T16:34:01;11.90;;;6.30;;
9854;SDS011;4966;48.112;9.282;2023-01-30T16:36:29;13.27;;;6.63;;
9854;SDS011;4966;48.112;9.282;2023-01-30T16:41:29;13.23;;;4.80;;
9854;SDS011;4966;48.112;9.282;2023-01-30T16:44:10;11.18;;;4.78;;
9854;SDS011;4966;48.112;9.282;2023-01-30T16:52:13;33.38;;;11.98;;
9854;SDS011;4966;48.112;9.282;2023-01-30T16:54:43;24.58;;;9.20;;
9854;SDS011;4966;48.112;9.282;2023-01-30T16:57:17;19.98;;;8.27;;
9854;SDS011;4966;48.112;9.282;2023-01-30T16:59:46;13.77;;;5.55;;
9854;SDS011;4966;48.112;9.282;2023-01-30T17:02:18;11.77;;;4.95;;
9854;SDS011;4966;48.112;9.282;2023-01-30T17:04:49;9.95;;;3.88;;
9854;SDS011;4966;48.112;9.282;2023-01-30T17:07:33;9.55;;;4.38;;
9854;SDS011;4966;48.112;9.282;2023-01-30T17:10:01;9.82;;;4.22;;
9854;SDS011;4966;48.112;9.282;2023-01-30T17:17:38;10.15;;;3.80;;
9854;SDS011;4966;48.112;9.282;2023-01-30T17:20:05;9.50;;;4.03;;
9854;SDS011;4966;48.112;9.282;2023-01-30T17:22:31;10.60;;;4.63;;
9854;SDS011;4966;48.112;9.282;2023-01-30T17:25:40;13.35;;;4.88;;
9854;SDS011;4966;48.112;9.282;2023-01-30T17:27:45;11.07;;;3.63;;
9854;SDS011;4966;48.112;9.282;2023-01-30T17:30:14;12.20;;;4.47;;
9854;SDS011;4966;48.112;9.282;2023-01-30T17:32:40;11.55;;;3.97;;
9854;SDS011;4966;48.112;9.282;2023-01-30T17:35:06;15.32;;;6.18;;
9854;SDS011;4966;48.112;9.282;2023-01-30T17:37:32;8.60;;;3.88;;
9854;SDS011;4966;48.112;9.282;2023-01-30T17:39:57;11.40;;;5.03;;
9854;SDS011;4966;48.112;9.282;2023-01-30T17:42:23;15.77;;;7.78;;
9854;SDS011;4966;48.112;9.282;2023-01-30T17:44:49;21.48;;;10.57;;
9854;SDS011;4966;48.112;9.282;2023-01-30T17:47:14;11.73;;;5.95;;
9854;SDS011;4966;48.112;9.282;2023-01-30T17:49:39;11.20;;;5.72;;
9854;SDS011;4966;48.112;9.282;2023-01-30T17:52:05;8.27;;;3.70;;
9854;SDS011;4966;48.112;9.282;2023-01-30T17:54:31;11.93;;;4.93;;
9854;SDS011;4966;48.112;9.282;2023-01-30T17:57:00;25.38;;;9.35;;
9854;SDS011;4966;48.112;9.282;2023-01-30T17:59:28;18.55;;;7.53;;
9854;SDS011;4966;48.112;9.282;2023-01-30T18:01:53;22.00;;;9.45;;
9854;SDS011;4966;48.112;9.282;2023-01-30T18:04:18;14.05;;;6.18;;
9854;SDS011;4966;48.112;9.282;2023-01-30T18:06:55;21.08;;;8.45;;
9854;SDS011;4966;48.112;9.282;2023-01-30T18:09:27;25.08;;;9.35;;
9854;SDS011;4966;48.112;9.282;2023-01-30T18:11:53;18.30;;;7.82;;
9854;SDS011;4966;48.112;9.282;2023-01-30T18:14:19;21.40;;;8.30;;
9854;SDS011;4966;48.112;9.282;2023-01-30T18:16:45;24.60;;;8.45;;
9854;SDS011;4966;48.112;9.282;2023-01-30T18:19:11;17.45;;;7.65;;
9854;SDS011;4966;48.112;9.282;2023-01-30T18:21:38;27.00;;;8.93;;
9854;SDS011;4966;48.112;9.282;2023-01-30T18:24:04;17.90;;;6.97;;
9854;SDS011;4966;48.112;9.282;2023-01-30T18:26:31;21.25;;;7.93;;
9854;SDS011;4966;48.112;9.282;2023-01-30T18:28:56;24.95;;;8.10;;
9854;SDS011;4966;48.112;9.282;2023-01-30T18:31:22;18.05;;;7.28;;
9854;SDS011;4966;48.112;9.282;2023-01-30T18:33:49;18.17;;;7.20;;
9854;SDS011;4966;48.112;9.282;2023-01-30T18:36:16;35.10;;;11.40;;
9854;SDS011;4966;48.112;9.282;2023-01-30T18:38:43;21.17;;;7.95;;
9854;SDS011;4966;48.112;9.282;2023-01-30T18:41:16;26.35;;;9.15;;
9854;SDS011;4966;48.112;9.282;2023-01-30T18:43:43;17.75;;;7.50;;
9854;SDS011;4966;48.112;9.282;2023-01-30T18:46:10;27.27;;;9.23;;
9854;SDS011;4966;48.112;9.282;2023-01-30T18:48:38;25.50;;;8.70;;
9854;SDS011;4966;48.112;9.282;2023-01-30T18:51:08;21.63;;;9.00;;
9854;SDS011;4966;48.112;9.282;2023-01-30T18:53:33;20.27;;;8.13;;